Long Creek, South Carolina
Current Conditions -  °F | °C
As of 3:15 AM on Friday 24 Oct 2014 (Local Time) from KTOC Reporting Station
Clear Clear  
Wind Chill: 50°   Ceiling: Unl
Heat Index: 50°   Visibility: 10mi
Dew Point: 45°   Wind: 5mph
Humidity: 83%   Direction: 350°N
Pressure: 30.04"   Gusts: NA
Location:  34.71°N, 83.14°W
Report Text: KTOC 240715Z AUTO 35004KT 10SM CLR 10/07 A3004 RMK AO2 T01000073
Loading
Personal Weather Stations






























Interactive Weather Map
Tropical Storm Tracking
New forecast layout! Learn more

10-Day Weather Forecast

Advertisements
Track Severe Weather on mobile